createdAt,value
2023-04-15T00:01:48.141Z,99419.88
2023-04-15T00:04:51.439Z,99430.03
2023-04-15T00:07:54.073Z,99427.75
2023-04-15T00:10:56.992Z,99420.22
2023-04-15T00:14:00.390Z,99431.38
2023-04-15T00:17:04.624Z,99436.37
2023-04-15T00:20:07.750Z,99436.06
2023-04-15T00:23:10.776Z,99432.84
2023-04-15T00:26:13.475Z,99428.34
2023-04-15T00:29:16.837Z,99434.00
2023-04-15T00:32:20.371Z,99419.25
2023-04-15T00:35:24.137Z,99432.88
2023-04-15T00:38:27.179Z,99434.34
2023-04-15T00:41:31.767Z,99436.16
2023-04-15T00:44:34.868Z,99436.16
2023-04-15T00:47:41.625Z,99430.81
2023-04-15T00:50:44.975Z,99450.56
2023-04-15T00:53:48.016Z,99448.56
2023-04-15T00:56:50.978Z,99450.00
2023-04-15T00:59:56.147Z,99450.31
2023-04-15T01:02:59.049Z,99452.25
2023-04-15T01:06:04.077Z,99454.81
2023-04-15T01:09:06.953Z,99442.44
2023-04-15T01:12:14.369Z,99455.28
2023-04-15T01:15:17.134Z,99454.91
2023-04-15T01:18:20.819Z,99461.13
2023-04-15T01:21:24.027Z,99461.97
2023-04-15T01:24:28.332Z,99456.91
2023-04-15T01:27:31.340Z,99451.75
2023-04-15T01:30:34.878Z,99460.16
2023-04-15T01:33:38.390Z,99446.34
2023-04-15T01:36:42.136Z,99460.59
2023-04-15T01:39:44.832Z,99461.66
2023-04-15T01:42:47.664Z,99453.31
2023-04-15T01:45:51.356Z,99466.69
2023-04-15T01:48:54.582Z,99461.72
2023-04-15T01:51:57.310Z,99460.72
2023-04-15T01:55:00.211Z,99460.78
2023-04-15T01:58:03.401Z,99470.22
2023-04-15T02:01:07.145Z,99472.81
2023-04-15T02:04:16.538Z,99460.75
2023-04-15T02:07:19.715Z,99479.53
2023-04-15T02:10:23.426Z,99484.19
2023-04-15T02:13:25.968Z,99489.56
2023-04-15T02:16:28.908Z,99496.06
2023-04-15T02:19:32.252Z,99481.88
2023-04-15T02:22:35.374Z,99486.66
2023-04-15T02:25:39.186Z,99484.50
2023-04-15T02:28:42.535Z,99475.41
2023-04-15T02:31:45.703Z,99477.50
2023-04-15T02:34:48.717Z,99478.50
2023-04-15T02:37:52.610Z,99480.97
2023-04-15T02:40:55.646Z,99481.66
2023-04-15T02:43:58.466Z,99474.66
2023-04-15T02:47:01.600Z,99470.25
2023-04-15T02:50:04.833Z,99474.66
2023-04-15T02:53:07.977Z,99479.25
2023-04-15T02:56:11.786Z,99482.25
2023-04-15T02:59:15.437Z,99470.16
2023-04-15T03:02:18.389Z,99469.47
2023-04-15T03:05:21.397Z,99460.50
2023-04-15T03:08:24.355Z,99465.56
2023-04-15T03:11:27.561Z,99468.16
2023-04-15T03:14:30.548Z,99458.13
2023-04-15T03:17:33.546Z,99468.06
2023-04-15T03:20:36.619Z,99464.56
2023-04-15T03:23:39.752Z,99462.63
2023-04-15T03:26:42.438Z,99457.69
2023-04-15T03:29:45.969Z,99457.00
2023-04-15T03:32:49.278Z,99457.75
2023-04-15T03:35:53.315Z,99444.50
2023-04-15T03:38:56.848Z,99460.34
2023-04-15T03:41:59.996Z,99457.31
2023-04-15T03:45:02.640Z,99464.31
2023-04-15T03:48:16.657Z,99469.88
2023-04-15T03:51:20.097Z,99466.97
2023-04-15T03:54:23.169Z,99472.41
2023-04-15T03:57:25.725Z,99475.16
2023-04-15T04:00:28.715Z,99480.34
2023-04-15T04:03:32.016Z,99478.78
2023-04-15T04:06:34.796Z,99484.75
2023-04-15T04:09:40.647Z,99486.84
2023-04-15T04:12:43.258Z,99485.72
2023-04-15T04:15:46.292Z,99485.88
2023-04-15T04:18:49.015Z,99484.63
2023-04-15T04:21:52.432Z,99487.78
2023-04-15T04:24:55.044Z,99481.31
2023-04-15T04:27:58.118Z,99473.78
2023-04-15T04:31:01.354Z,99473.03
2023-04-15T04:34:04.232Z,99468.00
2023-04-15T04:37:07.048Z,99479.78
2023-04-15T04:40:10.732Z,99479.31
2023-04-15T04:43:13.553Z,99481.03
2023-04-15T04:46:16.635Z,99486.47
2023-04-15T04:49:19.351Z,99485.06
2023-04-15T04:52:22.359Z,99488.19
2023-04-15T04:55:24.982Z,99490.66
2023-04-15T04:58:27.996Z,99499.31
2023-04-15T05:01:30.952Z,99500.25
2023-04-15T05:04:34.550Z,99499.19
2023-04-15T05:07:37.443Z,99503.25
2023-04-15T05:10:40.436Z,99507.94
2023-04-15T05:13:43.099Z,99509.97
2023-04-15T05:16:45.950Z,99509.16
2023-04-15T05:19:49.125Z,99517.88
2023-04-15T05:22:52.085Z,99520.25
2023-04-15T05:25:54.688Z,99518.63
2023-04-15T05:28:58.104Z,99519.16
2023-04-15T05:32:01.258Z,99513.91
2023-04-15T05:35:04.554Z,99520.28
2023-04-15T05:38:07.403Z,99513.31
2023-04-15T05:41:10.321Z,99523.41
2023-04-15T05:44:13.015Z,99514.34
2023-04-15T05:47:15.990Z,99529.41
2023-04-15T05:50:18.772Z,99527.63
2023-04-15T05:53:22.496Z,99534.47
2023-04-15T05:56:27.143Z,99527.06
2023-04-15T05:59:30.130Z,99526.31
2023-04-15T06:02:32.931Z,99536.47
2023-04-15T06:05:35.921Z,99542.00
2023-04-15T06:08:38.652Z,99533.72
2023-04-15T06:11:41.570Z,99530.66
2023-04-15T06:14:44.203Z,99536.16
2023-04-15T06:17:47.224Z,99535.37
2023-04-15T06:20:50.005Z,99538.53
2023-04-15T06:23:53.358Z,99538.13
2023-04-15T06:26:56.233Z,99540.84
2023-04-15T06:29:59.188Z,99545.94
2023-04-15T06:33:03.526Z,99544.37
2023-04-15T06:36:06.692Z,99544.78
2023-04-15T06:39:09.597Z,99547.50
2023-04-15T06:42:12.654Z,99550.63
2023-04-15T06:45:15.361Z,99555.34
2023-04-15T06:48:18.553Z,99552.59
2023-04-15T06:51:21.288Z,99560.78
2023-04-15T06:54:24.481Z,99556.41
2023-04-15T06:57:27.129Z,99563.81
2023-04-15T07:00:30.767Z,99562.97
2023-04-15T07:03:33.399Z,99560.44
2023-04-15T07:06:36.490Z,99567.00
2023-04-15T07:09:39.079Z,99567.72
2023-04-15T07:12:42.110Z,99566.22
2023-04-15T07:15:45.834Z,99573.72
2023-04-15T07:18:49.092Z,99564.91
2023-04-15T07:21:51.811Z,99569.59
2023-04-15T07:24:54.779Z,99572.63
2023-04-15T07:27:57.512Z,99575.88
2023-04-15T07:31:00.871Z,99578.97
2023-04-15T07:34:05.260Z,99585.19
2023-04-15T07:37:08.456Z,99589.09
2023-04-15T07:40:12.049Z,99590.34
2023-04-15T07:43:15.103Z,99593.16
2023-04-15T07:46:17.791Z,99601.56
2023-04-15T07:49:21.562Z,99604.50
2023-04-15T07:52:24.395Z,99601.84
2023-04-15T07:55:28.329Z,99601.88
2023-04-15T07:58:31.225Z,99601.25
2023-04-15T08:01:34.517Z,99603.22
2023-04-15T08:04:38.026Z,99606.13
2023-04-15T08:07:41.364Z,99603.72
2023-04-15T08:10:44.376Z,99602.41
2023-04-15T08:13:47.620Z,99603.34
2023-04-15T08:16:50.913Z,99595.94
2023-04-15T08:19:53.936Z,99589.75
2023-04-15T08:22:57.206Z,99595.81
2023-04-15T08:25:59.788Z,99588.81
2023-04-15T08:29:03.243Z,99590.00
2023-04-15T08:32:06.611Z,99593.47
2023-04-15T08:35:10.526Z,99595.81
2023-04-15T08:38:13.096Z,99602.06
2023-04-15T08:41:24.376Z,99605.91
2023-04-15T08:44:29.410Z,99598.75
2023-04-15T08:47:33.956Z,99597.19
2023-04-15T08:50:36.722Z,99607.06
2023-04-15T08:53:39.926Z,99609.34
2023-04-15T08:56:42.703Z,99608.59
2023-04-15T08:59:45.768Z,99599.28
2023-04-15T09:02:48.847Z,99614.47
2023-04-15T09:05:53.304Z,99613.59
2023-04-15T09:08:56.351Z,99605.78
2023-04-15T09:12:01.997Z,99622.59
2023-04-15T09:15:05.049Z,99625.34
2023-04-15T09:18:08.015Z,99625.81
2023-04-15T09:21:14.142Z,99618.75
2023-04-15T09:24:17.232Z,99630.06
2023-04-15T09:27:21.043Z,99627.03
2023-04-15T09:30:24.182Z,99628.66
2023-04-15T09:33:28.799Z,99628.41
2023-04-15T09:36:51.126Z,99617.94
2023-04-15T09:39:53.972Z,99624.00
2023-04-15T09:42:57.063Z,99622.44
2023-04-15T09:45:59.799Z,99632.12
2023-04-15T09:49:13.051Z,99627.75
2023-04-15T09:52:16.023Z,99626.56
2023-04-15T09:55:19.175Z,99624.72
2023-04-15T09:58:29.476Z,99627.87
2023-04-15T10:01:33.264Z,99632.56
2023-04-15T10:04:40.775Z,99649.06
2023-04-15T10:07:44.044Z,99640.31
2023-04-15T10:10:48.455Z,99647.22
2023-04-15T10:13:52.875Z,99635.44
2023-04-15T10:16:58.912Z,99647.47
2023-04-15T10:20:03.678Z,99649.63
2023-04-15T10:23:09.948Z,99639.81
2023-04-15T10:26:15.633Z,99635.84
2023-04-15T10:29:18.901Z,99636.72
2023-04-15T10:32:24.188Z,99634.28
2023-04-15T10:35:28.735Z,99630.84
2023-04-15T10:38:43.305Z,99628.75
2023-04-15T10:41:46.189Z,99628.78
2023-04-15T10:44:51.964Z,99618.91
2023-04-15T10:48:03.471Z,99622.00
2023-04-15T10:51:06.511Z,99631.66
2023-04-15T10:54:14.700Z,99643.09
2023-04-15T10:57:24.058Z,99644.22
2023-04-15T11:00:32.861Z,99645.13
2023-04-15T11:03:40.998Z,99647.12
2023-04-15T11:06:45.744Z,99655.25
2023-04-15T11:09:48.368Z,99643.66
2023-04-15T11:12:57.962Z,99660.59
2023-04-15T11:16:02.605Z,99660.38
2023-04-15T11:19:06.049Z,99666.94
2023-04-15T11:22:12.658Z,99671.47
2023-04-15T11:25:26.200Z,99659.78
2023-04-15T11:28:30.603Z,99673.94
2023-04-15T11:31:33.969Z,99675.94
2023-04-15T11:34:37.028Z,99669.78
2023-04-15T11:37:40.036Z,99680.00
2023-04-15T11:40:46.826Z,99679.44
2023-04-15T11:43:51.271Z,99673.84
2023-04-15T11:46:55.579Z,99679.09
2023-04-15T11:50:13.530Z,99671.53
2023-04-15T11:53:16.180Z,99671.03
2023-04-15T11:56:24.024Z,99672.09
2023-04-15T11:59:35.628Z,99677.88
2023-04-15T12:02:47.869Z,99681.28
2023-04-15T12:06:07.252Z,99675.50
2023-04-15T12:09:12.561Z,99649.66
2023-04-15T12:12:15.668Z,99661.16
2023-04-15T12:15:18.338Z,99675.31
2023-04-15T12:18:21.432Z,99676.44
2023-04-15T12:21:27.946Z,99679.25
2023-04-15T12:24:34.916Z,99650.09
2023-04-15T12:27:37.997Z,99672.78
2023-04-15T12:30:51.631Z,99655.19
2023-04-15T12:34:07.930Z,99681.59
2023-04-15T12:37:13.838Z,99673.84
2023-04-15T12:40:16.774Z,99660.38
2023-04-15T12:43:19.638Z,99662.66
2023-04-15T12:46:22.300Z,99669.34
2023-04-15T12:49:26.798Z,99667.00
2023-04-15T12:52:29.807Z,99671.63
2023-04-15T12:55:32.664Z,99674.25
2023-04-15T12:58:35.554Z,99673.81
2023-04-15T13:01:39.003Z,99670.94
2023-04-15T13:04:42.361Z,99673.53
2023-04-15T13:07:45.390Z,99679.56
2023-04-15T13:10:48.103Z,99691.59
2023-04-15T13:13:52.781Z,99696.97
2023-04-15T13:16:55.681Z,99688.44
2023-04-15T13:19:59.481Z,99703.28
2023-04-15T13:23:02.108Z,99694.19
2023-04-15T13:26:05.673Z,99705.63
2023-04-15T13:29:08.301Z,99702.97
2023-04-15T13:32:11.510Z,99703.34
2023-04-15T13:35:14.851Z,99702.16
2023-04-15T13:38:17.864Z,99701.81
2023-04-15T13:41:21.370Z,99702.34
2023-04-15T13:44:24.473Z,99700.69
2023-04-15T13:47:27.470Z,99700.56
2023-04-15T13:50:30.769Z,99692.78
2023-04-15T13:53:38.695Z,99692.84
2023-04-15T13:56:42.752Z,99696.50
2023-04-15T13:59:45.774Z,99697.22
2023-04-15T14:02:49.209Z,99704.19
2023-04-15T14:05:56.084Z,99704.66
2023-04-15T14:08:58.701Z,99703.94
2023-04-15T14:12:02.578Z,99707.47
2023-04-15T14:15:05.721Z,99717.00
2023-04-15T14:18:08.598Z,99708.91
2023-04-15T14:21:11.262Z,99701.84
2023-04-15T14:24:14.198Z,99711.19
2023-04-15T14:27:16.863Z,99702.31
2023-04-15T14:30:20.126Z,99695.41
2023-04-15T14:33:23.160Z,99694.16
2023-04-15T14:36:27.230Z,99690.66
2023-04-15T14:39:30.083Z,99692.00
2023-04-15T14:42:33.144Z,99700.25
2023-04-15T14:45:36.479Z,99693.97
2023-04-15T14:48:39.545Z,99698.13
2023-04-15T14:51:42.877Z,99698.28
2023-04-15T14:54:45.892Z,99693.25
2023-04-15T14:57:48.667Z,99705.44
2023-04-15T15:00:51.597Z,99714.25
2023-04-15T15:03:54.587Z,99711.63
2023-04-15T15:06:57.521Z,99709.59
2023-04-15T15:10:00.284Z,99705.31
2023-04-15T15:13:05.560Z,99702.50
2023-04-15T15:16:08.337Z,99706.53
2023-04-15T15:19:11.460Z,99704.91
2023-04-15T15:22:14.116Z,99718.50
2023-04-15T15:25:17.289Z,99714.22
2023-04-15T15:28:21.817Z,99719.37
2023-04-15T15:31:24.971Z,99713.00
2023-04-15T15:34:27.560Z,99716.12
2023-04-15T15:37:31.525Z,99713.78
2023-04-15T15:40:34.178Z,99727.06
2023-04-15T15:43:37.052Z,99727.06
2023-04-15T15:46:39.757Z,99729.25
2023-04-15T15:49:42.779Z,99727.28
2023-04-15T15:52:45.380Z,99723.38
2023-04-15T15:55:48.521Z,99719.47
2023-04-15T15:58:51.199Z,99717.63
2023-04-15T16:01:54.404Z,99732.31
2023-04-15T16:04:57.550Z,99730.41
2023-04-15T16:08:00.222Z,99728.25
2023-04-15T16:11:03.194Z,99727.56
2023-04-15T16:14:05.947Z,99731.16
2023-04-15T16:17:09.280Z,99737.88
2023-04-15T16:20:11.925Z,99734.41
2023-04-15T16:23:16.773Z,99737.25
2023-04-15T16:26:19.565Z,99740.16
2023-04-15T16:29:22.487Z,99732.81
2023-04-15T16:32:25.214Z,99746.56
2023-04-15T16:35:28.497Z,99735.69
2023-04-15T16:38:31.570Z,99732.66
2023-04-15T16:41:35.284Z,99735.47
2023-04-15T16:44:38.056Z,99740.22
2023-04-15T16:47:41.240Z,99744.22
2023-04-15T16:50:44.343Z,99751.69
2023-04-15T16:53:47.512Z,99753.69
2023-04-15T16:56:50.110Z,99761.28
2023-04-15T16:59:53.293Z,99751.06
2023-04-15T17:02:56.259Z,99753.50
2023-04-15T17:05:59.436Z,99754.41
2023-04-15T17:09:02.513Z,99767.09
2023-04-15T17:12:06.719Z,99775.41
2023-04-15T17:15:09.925Z,99775.84
2023-04-15T17:18:12.853Z,99770.78
2023-04-15T17:21:16.803Z,99777.56
2023-04-15T17:24:19.848Z,99781.97
2023-04-15T17:27:22.995Z,99792.66
2023-04-15T17:30:26.371Z,99799.78
2023-04-15T17:34:00.309Z,99798.66
2023-04-15T17:36:53.654Z,99805.75
2023-04-15T17:39:56.435Z,99811.63
2023-04-15T17:42:59.518Z,99810.09
2023-04-15T17:46:02.438Z,99815.97
2023-04-15T17:49:06.772Z,99824.22
2023-04-15T17:52:14.922Z,99822.66
2023-04-15T17:58:21.387Z,99829.34
2023-04-15T18:01:24.377Z,99835.22
2023-04-15T18:04:28.497Z,99842.22
2023-04-15T18:07:31.276Z,99840.63
2023-04-15T18:10:35.050Z,99842.97
2023-04-15T18:13:38.389Z,99842.94
2023-04-15T18:16:42.784Z,99844.50
2023-04-15T18:19:46.569Z,99851.53
2023-04-15T18:22:50.675Z,99854.63
2023-04-15T18:25:53.556Z,99861.66
2023-04-15T18:28:57.081Z,99866.41
2023-04-15T18:32:02.740Z,99872.97
2023-04-15T18:35:07.024Z,99864.28
2023-04-15T18:38:10.052Z,99882.66
2023-04-15T18:41:13.190Z,99878.97
2023-04-15T18:44:16.063Z,99882.50
2023-04-15T18:47:19.332Z,99884.75
2023-04-15T18:50:22.196Z,99896.03
2023-04-15T18:53:25.394Z,99891.63
2023-04-15T18:56:28.318Z,99901.03
2023-04-15T18:59:31.972Z,99907.19
2023-04-15T19:02:35.306Z,99911.69
2023-04-15T19:05:38.897Z,99925.31
2023-04-15T19:08:42.221Z,99924.78
2023-04-15T19:11:45.510Z,99930.19
2023-04-15T19:14:48.497Z,99928.12
2023-04-15T19:17:51.850Z,99944.50
2023-04-15T19:20:56.003Z,99945.19
2023-04-15T19:24:00.906Z,99952.50
2023-04-15T19:27:03.809Z,99960.28
2023-04-15T19:30:08.110Z,99962.37
2023-04-15T19:33:11.057Z,99959.06
2023-04-15T19:36:14.515Z,99977.13
2023-04-15T19:39:17.916Z,99990.06
2023-04-15T19:42:21.799Z,99967.00
2023-04-15T19:45:24.665Z,99985.97
2023-04-15T19:48:28.046Z,99993.56
2023-04-15T19:51:31.892Z,99992.44
2023-04-15T19:54:35.100Z,99996.31
2023-04-15T19:57:37.940Z,100008.91
2023-04-15T20:00:42.132Z,99995.91
2023-04-15T20:03:45.609Z,99994.59
2023-04-15T20:06:49.528Z,100001.31
2023-04-15T20:09:53.701Z,99995.84
2023-04-15T20:12:56.765Z,99987.91
2023-04-15T20:15:59.884Z,99999.88
2023-04-15T20:19:08.483Z,99998.28
2023-04-15T20:22:11.646Z,100012.25
2023-04-15T20:25:14.957Z,100003.13
2023-04-15T20:28:19.328Z,99998.97
2023-04-15T20:31:22.975Z,100008.62
2023-04-15T20:34:26.158Z,100006.84
2023-04-15T20:37:33.081Z,100007.06
2023-04-15T20:40:36.480Z,100005.75
2023-04-15T20:43:39.061Z,100003.94
2023-04-15T20:46:42.139Z,99999.13
2023-04-15T20:49:45.799Z,99998.94
2023-04-15T20:52:49.092Z,100004.94
2023-04-15T20:55:51.738Z,100011.97
2023-04-15T20:58:54.786Z,100008.25
2023-04-15T21:01:58.254Z,100010.88
2023-04-15T21:05:01.742Z,100005.34
2023-04-15T21:08:04.511Z,100002.69
2023-04-15T21:11:07.422Z,99994.13
2023-04-15T21:14:10.121Z,99987.88
2023-04-15T21:17:13.158Z,99987.13
2023-04-15T21:20:16.105Z,99987.63
2023-04-15T21:23:19.117Z,99985.28
2023-04-15T21:26:21.702Z,99990.88
2023-04-15T21:29:24.606Z,99988.13
2023-04-15T21:32:27.295Z,99999.31
2023-04-15T21:35:30.605Z,99996.56
2023-04-15T21:38:33.966Z,99998.12
2023-04-15T21:41:37.146Z,100001.25
2023-04-15T21:44:39.779Z,99996.28
2023-04-15T21:48:00.843Z,99995.16
2023-04-15T21:51:05.412Z,99994.94
2023-04-15T21:54:08.387Z,99999.78
2023-04-15T21:57:11.197Z,99982.25
2023-04-15T22:00:15.406Z,99994.13
2023-04-15T22:03:18.560Z,99997.31
2023-04-15T22:06:21.567Z,100001.88
2023-04-15T22:09:24.624Z,100000.28
2023-04-15T22:12:27.234Z,99994.00
2023-04-15T22:15:30.082Z,99988.25
2023-04-15T22:18:32.782Z,100002.06
2023-04-15T22:21:35.921Z,100002.91
2023-04-15T22:24:40.595Z,100001.31
2023-04-15T22:27:43.545Z,100012.31
2023-04-15T22:30:46.104Z,100010.91
2023-04-15T22:33:49.328Z,100016.37
2023-04-15T22:36:52.633Z,100004.91
2023-04-15T22:39:55.918Z,100001.53
2023-04-15T22:42:58.606Z,100002.84
2023-04-15T22:46:01.806Z,99996.41
2023-04-15T22:49:09.140Z,99990.97
2023-04-15T22:52:23.407Z,99992.22
2023-04-15T22:55:31.003Z,99995.00
2023-04-15T22:58:34.270Z,99998.88
2023-04-15T23:01:38.266Z,99995.84
2023-04-15T23:04:41.674Z,99992.34
2023-04-15T23:07:44.408Z,99995.09
2023-04-15T23:10:47.316Z,99986.56
2023-04-15T23:13:50.746Z,99995.50
2023-04-15T23:16:54.473Z,99993.66
2023-04-15T23:19:57.077Z,100000.69
2023-04-15T23:22:59.982Z,99989.28
2023-04-15T23:26:04.050Z,99992.44
2023-04-15T23:29:08.519Z,100012.72
2023-04-15T23:32:11.193Z,100017.25
2023-04-15T23:35:14.132Z,100014.25
2023-04-15T23:38:16.886Z,100012.59
2023-04-15T23:41:19.902Z,100017.75
2023-04-15T23:44:22.863Z,100012.19
2023-04-15T23:47:26.195Z,100018.47
2023-04-15T23:50:29.031Z,100009.59
2023-04-15T23:53:32.002Z,100011.44
2023-04-15T23:56:34.593Z,100005.41
2023-04-15T23:59:37.526Z,100019.09
